Time;durP1;ratioP1;P1;durP2;ratioP2;P2;SDS_P1;SDS_P2;PMS_P1;PMS_P2;Temp;Humidity;BMP_temperature;BMP_pressure;BME280_temperature;BME280_humidity;BME280_pressure;Samples;Min_cycle;Max_cycle;Signal;HPM_P1;HPM_P2
2022/12/15 00:39:01;;;;;;;25.07;10.57;;;;;;;-6.36;80.27;100604.44;5026286;28;20052;-76
2022/12/15 00:41:26;;;;;;;21.13;10.17;;;;;;;-6.36;79.72;100606.97;5025838;28;20468;-76
2022/12/15 00:43:52;;;;;;;19.10;9.10;;;;;;;-6.36;79.79;100606.97;5025581;28;20151;-76
2022/12/15 00:49:02;;;;;;;22.77;11.43;;;;;;;-6.36;80.42;100616.19;5032346;28;20511;-76
2022/12/15 01:21:36;;;;;;;20.60;9.80;;;;;;;-6.16;80.91;100627.13;5028180;28;20400;-76
2022/12/15 01:24:02;;;;;;;21.90;9.83;;;;;;;-6.14;80.06;100633.09;5031726;28;20029;-77
2022/12/15 01:26:27;;;;;;;19.97;9.30;;;;;;;-6.13;79.91;100635.69;5032586;28;20029;-77
2022/12/15 01:28:52;;;;;;;20.03;10.43;;;;;;;-6.14;80.25;100633.09;5032885;28;20024;-76
2022/12/15 01:31:17;;;;;;;21.27;9.67;;;;;;;-6.12;80.25;100639.06;5029990;28;20104;-76
2022/12/15 01:33:43;;;;;;;19.37;10.23;;;;;;;-6.11;80.84;100638.28;5032415;28;20025;-76
2022/12/15 01:36:09;;;;;;;18.50;8.07;;;;;;;-6.10;80.69;100643.41;5028510;28;20025;-76
2022/12/15 01:38:34;;;;;;;16.63;8.10;;;;;;;-6.13;79.41;100640.75;5032774;28;20029;-77
2022/12/15 01:41:03;;;;;;;21.50;9.57;;;;;;;-6.20;79.55;100643.00;5029221;28;20037;-77
2022/12/15 01:43:34;;;;;;;21.43;9.47;;;;;;;-6.30;79.38;100640.09;5016503;28;20038;-76
2022/12/15 01:46:17;;;;;;;20.27;9.77;;;;;;;-6.34;79.11;100640.78;5016114;28;20030;-76
2022/12/15 01:48:48;;;;;;;21.23;10.53;;;;;;;-6.42;78.75;100648.09;5017093;28;20025;-76
2022/12/15 01:51:36;;;;;;;26.37;10.97;;;;;;;-6.49;79.55;100643.56;5023068;28;20064;-76
2022/12/15 01:54:19;;;;;;;25.37;11.30;;;;;;;-6.49;79.63;100655.38;5002253;28;20079;-77
2022/12/15 01:57:07;;;;;;;15.43;7.63;;;;;;;-6.48;79.48;100654.53;5029260;28;20385;-77
2022/12/15 01:59:37;;;;;;;20.83;9.40;;;;;;;-6.51;79.25;100651.91;5013488;28;20117;-77
2022/12/15 02:02:03;;;;;;;18.13;9.57;;;;;;;-6.55;79.03;100655.97;5023536;28;20030;-76
2022/12/15 02:04:31;;;;;;;21.57;10.97;;;;;;;-6.62;79.20;100664.13;5027598;28;20479;-76
2022/12/15 02:06:56;;;;;;;22.30;10.73;;;;;;;-6.65;79.23;100653.88;5023826;28;20034;-76
2022/12/15 02:09:24;;;;;;;19.80;10.03;;;;;;;-6.68;79.17;100662.19;5027581;28;20105;-76
2022/12/15 02:12:18;;;;;;;21.40;10.27;;;;;;;-6.71;78.63;100654.47;5024161;28;20499;-76
2022/12/15 02:15:12;;;;;;;21.73;10.13;;;;;;;-6.77;78.31;100661.81;5023581;28;20223;-76
2022/12/15 02:18:08;;;;;;;21.93;10.07;;;;;;;-6.79;78.59;100671.00;5028183;28;20065;-76
2022/12/15 02:20:47;;;;;;;17.73;7.23;;;;;;;-6.81;78.31;100683.59;5029648;28;20029;-77
2022/12/15 02:23:21;;;;;;;19.60;8.97;;;;;;;-6.80;78.94;100681.91;5025235;28;20018;-77
2022/12/15 02:25:59;;;;;;;21.43;9.70;;;;;;;-6.84;78.71;100687.66;5025234;28;20030;-76
2022/12/15 02:28:51;;;;;;;21.73;10.37;;;;;;;-6.89;78.39;100684.91;5023153;28;20022;-76
2022/12/15 02:31:49;;;;;;;21.77;10.27;;;;;;;-6.92;78.26;100690.72;5023005;28;20041;-76
2022/12/15 02:34:38;;;;;;;20.43;10.03;;;;;;;-6.95;78.41;100690.56;5019906;28;20440;-76
2022/12/15 02:37:06;;;;;;;24.43;11.17;;;;;;;-7.00;78.90;100692.03;5024916;28;20466;-76
2022/12/15 02:39:32;;;;;;;25.27;10.97;;;;;;;-7.05;78.86;100689.31;5026712;28;20025;-76
2022/12/15 02:41:57;;;;;;;23.33;10.80;;;;;;;-7.05;78.76;100683.41;5030249;28;20101;-76
2022/12/15 02:44:30;;;;;;;22.63;10.53;;;;;;;-7.08;79.13;100689.16;5023605;28;20049;-76
2022/12/15 02:47:12;;;;;;;26.40;11.30;;;;;;;-7.09;79.09;100682.41;5010688;28;20361;-76
2022/12/15 02:49:59;;;;;;;23.87;10.40;;;;;;;-7.10;79.48;100678.16;5026768;28;20506;-77
2022/12/15 02:52:36;;;;;;;27.47;11.13;;;;;;;-7.07;79.29;100682.47;5028268;28;20421;-76
2022/12/15 02:55:14;;;;;;;21.70;10.47;;;;;;;-7.06;79.89;100682.53;5026365;28;20033;-77
2022/12/15 02:58:03;;;;;;;27.20;11.93;;;;;;;-7.05;79.39;100688.47;5023571;28;20040;-76
2022/12/15 03:00:35;;;;;;;26.50;11.00;;;;;;;-7.05;79.85;100698.56;5030678;28;20037;-76
2022/12/15 03:03:00;;;;;;;17.73;7.93;;;;;;;-7.02;79.23;100693.66;5022797;28;20036;-77
2022/12/15 03:05:27;;;;;;;21.57;9.77;;;;;;;-7.07;79.14;100695.97;5033880;28;20041;-76
2022/12/15 03:07:53;;;;;;;23.20;10.23;;;;;;;-7.07;78.83;100695.97;5035613;28;20056;-77
2022/12/15 03:10:22;;;;;;;28.23;12.63;;;;;;;-7.11;78.50;100694.13;5031528;28;20077;-76
2022/12/15 03:12:49;;;;;;;26.87;12.57;;;;;;;-7.17;79.39;100689.63;5021190;28;20052;-77
2022/12/15 03:15:15;;;;;;;26.27;12.30;;;;;;;-7.16;79.68;100696.44;5014920;28;20036;-76
2022/12/15 03:17:40;;;;;;;29.77;13.20;;;;;;;-7.16;79.13;100690.53;5035375;28;20029;-76
2022/12/15 03:20:05;;;;;;;25.47;12.17;;;;;;;-7.17;79.43;100689.63;5033444;28;20025;-76
2022/12/15 03:22:31;;;;;;;22.23;10.90;;;;;;;-7.18;79.71;100695.53;5024610;28;20061;-76
2022/12/15 03:24:56;;;;;;;23.57;10.80;;;;;;;-7.14;79.76;100693.97;5031990;28;20063;-76
2022/12/15 03:27:22;;;;;;;21.93;10.87;;;;;;;-7.08;79.97;100703.50;5016696;28;20535;-76
2022/12/15 03:29:47;;;;;;;23.10;10.50;;;;;;;-7.03;80.17;100707.09;5026480;28;20042;-76
2022/12/15 03:32:12;;;;;;;24.77;10.63;;;;;;;-6.99;80.56;100703.88;5032315;28;20033;-77
2022/12/15 03:34:37;;;;;;;17.20;7.40;;;;;;;-6.94;80.92;100717.59;5010717;28;20025;-76
2022/12/15 03:37:03;;;;;;;19.67;8.50;;;;;;;-6.93;79.39;100714.28;5023763;28;20026;-76
2022/12/15 03:39:28;;;;;;;19.50;9.17;;;;;;;-6.97;79.96;100711.56;5020441;28;20388;-76
2022/12/15 03:41:53;;;;;;;22.47;10.50;;;;;;;-7.02;79.40;100708.81;5030115;28;20033;-77
2022/12/15 03:44:19;;;;;;;23.87;11.00;;;;;;;-7.06;79.55;100710.34;5030959;28;20029;-76
2022/12/15 03:46:45;;;;;;;26.43;11.73;;;;;;;-7.10;79.82;100705.97;5023487;28;20033;-77
2022/12/15 03:49:10;;;;;;;21.13;10.70;;;;;;;-7.06;80.83;100712.00;5022260;28;20080;-76
2022/12/15 03:51:35;;;;;;;27.70;11.70;;;;;;;-7.01;80.58;100720.69;5027280;28;20033;-76
2022/12/15 03:54:00;;;;;;;26.23;11.83;;;;;;;-6.95;80.44;100712.47;5030098;28;20021;-76
2022/12/15 03:56:26;;;;;;;26.27;11.33;;;;;;;-6.92;80.47;100721.06;5018081;28;20404;-76
2022/12/15 03:58:51;;;;;;;24.93;11.60;;;;;;;-6.90;80.84;100716.06;5032490;28;20065;-77
2022/12/15 04:01:19;;;;;;;20.97;10.03;;;;;;;-6.88;80.77;100722.94;5024290;28;20025;-76
2022/12/15 04:03:44;;;;;;;22.77;9.67;;;;;;;-6.86;79.54;100718.81;5025130;28;20075;-76
2022/12/15 04:06:10;;;;;;;23.30;9.77;;;;;;;-6.88;79.25;100720.41;5026365;28;20033;-77
2022/12/15 04:08:35;;;;;;;19.93;9.47;;;;;;;-6.93;79.16;100723.53;5033050;28;20029;-77
2022/12/15 04:11:00;;;;;;;20.57;9.77;;;;;;;-6.96;78.90;100719.19;5032110;28;20021;-76
2022/12/15 04:13:25;;;;;;;23.47;10.33;;;;;;;-7.01;79.21;100720.69;5024253;28;20465;-76
2022/12/15 04:15:51;;;;;;;21.10;10.03;;;;;;;-7.06;79.15;100717.91;5022828;28;20056;-76
2022/12/15 04:18:16;;;;;;;21.10;9.70;;;;;;;-7.09;79.39;100722.88;5021723;28;20029;-77
2022/12/15 04:20:41;;;;;;;24.43;11.13;;;;;;;-7.13;78.65;100710.00;5020409;28;20029;-77
2022/12/15 04:23:07;;;;;;;25.80;11.77;;;;;;;-7.21;79.49;100702.97;5025808;28;20032;-76
2022/12/15 05:31:54;;;;;;;26.30;11.67;;;;;;;-7.44;80.05;100749.06;5018043;28;20048;-76
2022/12/15 05:34:30;;;;;;;26.10;11.27;;;;;;;-7.42;80.00;100755.06;5029029;28;20025;-76
2022/12/15 05:36:57;;;;;;;28.90;12.37;;;;;;;-7.41;80.19;100755.13;5022100;28;20037;-76
2022/12/15 05:39:23;;;;;;;26.87;11.40;;;;;;;-7.38;80.63;100749.38;5030636;28;20380;-76
2022/12/15 05:41:50;;;;;;;23.77;11.87;;;;;;;-7.34;80.89;100757.16;5028332;28;20033;-76
2022/12/15 05:44:16;;;;;;;17.83;8.33;;;;;;;-7.27;80.18;100757.44;5017571;28;20032;-76
2022/12/15 05:46:42;;;;;;;22.43;9.90;;;;;;;-7.30;80.16;100758.16;5018588;28;20116;-76
2022/12/15 05:49:10;;;;;;;21.23;9.70;;;;;;;-7.34;79.53;100764.72;5021203;28;20483;-76
2022/12/15 05:51:39;;;;;;;23.43;10.63;;;;;;;-7.37;79.94;100766.25;5025297;28;20041;-77
2022/12/15 05:54:05;;;;;;;21.53;10.37;;;;;;;-7.40;79.30;100763.59;5028398;28;20025;-76
2022/12/15 05:56:30;;;;;;;24.23;12.27;;;;;;;-7.45;79.49;100765.91;5027658;28;20052;-76
2022/12/15 05:58:56;;;;;;;27.07;12.23;;;;;;;-7.47;80.32;100775.94;5020658;28;20061;-76
2022/12/15 06:01:22;;;;;;;24.23;10.67;;;;;;;-7.45;80.00;100770.09;5030181;28;20037;-76
2022/12/15 06:03:48;;;;;;;23.57;9.93;;;;;;;-7.47;80.30;100770.88;5025481;28;20033;-76
2022/12/15 06:06:13;;;;;;;19.33;9.00;;;;;;;-7.48;79.35;100779.25;5024299;28;20045;-76
2022/12/15 06:08:40;;;;;;;18.80;8.87;;;;;;;-7.48;79.37;100778.41;5025279;28;20075;-76
2022/12/15 06:11:06;;;;;;;21.93;9.67;;;;;;;-7.48;79.42;100779.25;5025382;28;20021;-76
2022/12/15 06:13:35;;;;;;;23.93;11.50;;;;;;;-7.50;80.09;100783.34;5024091;28;20148;-77
2022/12/15 06:16:05;;;;;;;23.80;10.60;;;;;;;-7.47;80.59;100786.03;5022117;28;20040;-77
2022/12/15 06:18:34;;;;;;;23.20;9.97;;;;;;;-7.46;79.79;100781.88;5022858;28;20039;-77
2022/12/15 06:21:04;;;;;;;22.57;10.90;;;;;;;-7.47;79.32;100788.56;5024461;28;20076;-77
2022/12/15 06:23:31;;;;;;;24.33;10.07;;;;;;;-7.48;79.66;100793.56;5022176;28;20029;-76
2022/12/15 06:25:57;;;;;;;24.90;11.33;;;;;;;-7.48;79.93;100801.13;5018598;28;20109;-77
2022/12/15 06:28:23;;;;;;;25.47;11.27;;;;;;;-7.47;79.31;100795.28;5024785;28;20096;-77
2022/12/15 06:30:53;;;;;;;21.60;10.70;;;;;;;-7.50;79.65;100795.13;5025459;28;20053;-77
2022/12/15 06:33:20;;;;;;;26.27;11.20;;;;;;;-7.49;79.10;100791.81;5020584;28;20021;-77
2022/12/15 06:35:46;;;;;;;27.93;13.03;;;;;;;-7.52;79.70;100789.16;5027390;28;20033;-77
2022/12/15 06:38:11;;;;;;;28.30;12.77;;;;;;;-7.54;80.07;100786.56;5031504;28;20179;-75
2022/12/15 06:40:37;;;;;;;27.77;12.27;;;;;;;-7.55;80.07;100789.88;5032449;28;20033;-76
2022/12/15 06:43:02;;;;;;;24.70;11.37;;;;;;;-7.53;80.01;100788.28;5030379;28;20036;-76
2022/12/15 06:45:27;;;;;;;24.77;10.93;;;;;;;-7.53;80.19;100780.72;5028085;28;20025;-77
2022/12/15 06:47:53;;;;;;;24.30;10.87;;;;;;;-7.50;80.42;100790.94;5032212;28;20030;-77
2022/12/15 06:50:18;;;;;;;25.30;10.97;;;;;;;-7.50;80.11;100795.13;5034267;28;20052;-77
2022/12/15 06:52:44;;;;;;;26.67;11.13;;;;;;;-7.52;80.38;100792.56;5024295;28;20031;-77
2022/12/15 06:55:09;;;;;;;25.83;11.80;;;;;;;-7.55;80.14;100794.94;5033430;28;20029;-77
2022/12/15 06:57:35;;;;;;;26.63;12.33;;;;;;;-7.56;79.98;100799.91;5028257;28;20030;-77
2022/12/15 07:00:01;;;;;;;26.43;12.00;;;;;;;-7.59;80.27;100798.09;5029677;28;20075;-76
2022/12/15 07:02:28;;;;;;;24.43;10.37;;;;;;;-7.57;79.93;100800.69;5021640;28;20117;-77
2022/12/15 07:04:54;;;;;;;29.67;13.97;;;;;;;-7.58;80.58;100798.94;5054354;28;20028;-77
2022/12/15 07:07:19;;;;;;;27.13;12.67;;;;;;;-7.55;81.13;100794.94;5038519;28;20044;-77
2022/12/15 07:09:44;;;;;;;31.20;14.73;;;;;;;-7.52;81.08;100799.25;5031992;28;20030;-77
2022/12/15 07:12:11;;;;;;;29.70;12.43;;;;;;;-7.50;81.21;100801.03;5015855;28;20084;-77
2022/12/15 07:14:36;;;;;;;31.27;12.60;;;;;;;-7.47;81.96;100807.94;5014502;28;20362;-77
2022/12/15 07:17:02;;;;;;;26.60;12.17;;;;;;;-7.43;80.98;100807.28;5030401;28;20116;-77
2022/12/15 07:19:27;;;;;;;31.37;13.20;;;;;;;-7.42;81.69;100808.97;5034606;28;20247;-77
2022/12/15 07:21:52;;;;;;;30.80;13.30;;;;;;;-7.39;81.81;100815.88;5035516;28;20028;-78
2022/12/15 07:24:18;;;;;;;28.97;12.90;;;;;;;-7.37;81.42;100816.81;5035441;28;20095;-77
2022/12/15 07:26:44;;;;;;;25.50;12.33;;;;;;;-7.35;81.71;100815.22;5032089;28;20030;-78
2022/12/15 07:29:10;;;;;;;32.37;14.03;;;;;;;-7.32;82.23;100822.91;5019367;28;20480;-78
2022/12/15 07:31:36;;;;;;;30.73;13.23;;;;;;;-7.30;81.83;100823.84;5035095;28;20247;-77
2022/12/15 07:34:01;;;;;;;29.40;13.60;;;;;;;-7.27;81.37;100823.16;5025985;28;20029;-76
2022/12/15 07:36:26;;;;;;;30.20;13.97;;;;;;;-7.26;81.99;100823.22;5034185;28;20041;-77
2022/12/15 07:38:57;;;;;;;30.50;12.70;;;;;;;-7.26;81.59;100818.16;5035011;28;20025;-76
2022/12/15 07:41:23;;;;;;;32.83;15.13;;;;;;;-7.26;81.69;100820.69;5028895;28;20025;-76
2022/12/15 07:43:48;;;;;;;29.53;14.10;;;;;;;-7.23;81.72;100815.78;5031506;28;20024;-77
2022/12/15 07:46:13;;;;;;;28.37;13.83;;;;;;;-7.21;82.19;100824.31;5032503;28;20072;-76
2022/12/15 07:48:39;;;;;;;28.00;12.83;;;;;;;-7.20;81.47;100826.03;5027827;28;20021;-77
2022/12/15 07:51:07;;;;;;;27.33;13.57;;;;;;;-7.17;81.88;100832.88;5033262;28;20025;-77
2022/12/15 07:53:33;;;;;;;32.83;13.87;;;;;;;-7.16;82.07;100832.94;5030541;28;20053;-77
2022/12/15 07:55:59;;;;;;;26.47;12.83;;;;;;;-7.15;82.29;100818.66;5021904;28;20083;-76
2022/12/15 07:58:26;;;;;;;23.17;11.87;;;;;;;-7.11;81.84;100812.06;5021580;28;20042;-77
2022/12/15 08:00:53;;;;;;;30.57;13.00;;;;;;;-7.08;82.29;100812.22;5027423;28;20026;-76
2022/12/15 08:03:18;;;;;;;32.47;14.37;;;;;;;-7.06;81.49;100819.06;5033275;28;20037;-77
2022/12/15 08:05:44;;;;;;;27.27;12.30;;;;;;;-7.03;81.86;100831.00;5032778;28;20028;-77
2022/12/15 08:08:10;;;;;;;24.03;10.37;;;;;;;-7.00;81.65;100836.16;5033146;28;20025;-77
2022/12/15 08:10:39;;;;;;;31.00;14.20;;;;;;;-7.04;81.99;100835.16;5032828;28;20112;-76
2022/12/15 08:13:04;;;;;;;29.60;15.27;;;;;;;-7.01;82.37;100837.00;5029182;28;20025;-77
2022/12/15 08:15:29;;;;;;;30.10;14.07;;;;;;;-6.96;82.41;100843.09;5031081;28;20032;-77
2022/12/15 08:17:55;;;;;;;29.17;14.50;;;;;;;-6.93;82.67;100844.94;5013993;28;20030;-77
2022/12/15 08:20:20;;;;;;;29.97;13.57;;;;;;;-6.91;81.97;100844.19;5033536;28;20033;-77
2022/12/15 08:22:45;;;;;;;29.87;13.13;;;;;;;-6.90;82.25;100843.41;5023723;28;20029;-77
2022/12/15 08:25:11;;;;;;;31.00;13.83;;;;;;;-6.85;82.25;100843.59;5027729;28;20045;-77
2022/12/15 08:27:36;;;;;;;31.57;14.37;;;;;;;-6.81;82.64;100854.72;5026176;28;20025;-77
2022/12/15 08:30:02;;;;;;;33.07;15.07;;;;;;;-6.76;82.87;100848.19;5023911;28;20105;-77
2022/12/15 08:32:27;;;;;;;28.50;13.93;;;;;;;-6.74;82.98;100844.09;5025929;28;20147;-77
2022/12/15 08:34:52;;;;;;;31.17;14.83;;;;;;;-6.69;82.31;100850.22;5021769;28;20492;-76
2022/12/15 08:37:18;;;;;;;33.93;14.73;;;;;;;-6.67;83.01;100847.75;5031312;28;20033;-77
2022/12/15 08:39:43;;;;;;;32.27;14.90;;;;;;;-6.62;82.75;100849.69;5030996;28;20029;-77
2022/12/15 08:42:08;;;;;;;34.37;14.37;;;;;;;-6.58;82.09;100858.28;5011218;28;20025;-77
2022/12/15 08:44:33;;;;;;;28.10;13.90;;;;;;;-6.55;82.99;100855.88;5032294;28;20053;-77
2022/12/15 08:46:59;;;;;;;30.73;13.63;;;;;;;-6.51;83.02;100865.34;5030833;28;20481;-77
2022/12/15 08:49:24;;;;;;;28.63;14.17;;;;;;;-6.48;82.64;100862.06;5025794;28;20100;-77
2022/12/15 08:51:50;;;;;;;30.77;14.70;;;;;;;-6.44;82.72;100858.88;5026590;28;20468;-77
2022/12/15 08:54:15;;;;;;;32.53;14.87;;;;;;;-6.40;82.63;100860.75;5021812;28;20457;-77
2022/12/15 08:56:40;;;;;;;29.93;15.00;;;;;;;-6.37;82.78;100847.34;5027237;28;20026;-77
2022/12/15 08:59:06;;;;;;;30.07;14.57;;;;;;;-6.32;83.08;100856.88;5027322;28;20021;-77
2022/12/15 09:01:32;;;;;;;22.60;10.70;;;;;;;-6.27;82.59;100855.41;5027322;28;20025;-77
2022/12/15 09:03:57;;;;;;;28.73;13.83;;;;;;;-6.25;82.70;100866.47;5020944;28;20026;-76
2022/12/15 09:06:27;;;;;;;27.60;12.80;;;;;;;-6.21;82.18;100869.16;5026631;28;20028;-76
2022/12/15 09:08:57;;;;;;;29.23;14.40;;;;;;;-6.20;82.29;100868.34;5018790;28;20144;-76
2022/12/15 09:11:24;;;;;;;26.27;14.10;;;;;;;-6.16;83.08;100872.75;5013832;28;20048;-77
2022/12/15 09:13:50;;;;;;;30.33;14.80;;;;;;;-6.12;83.04;100877.13;5020380;28;20461;-76
2022/12/15 09:16:17;;;;;;;32.43;15.53;;;;;;;-6.07;83.26;100878.19;5034552;28;20099;-77
2022/12/15 09:18:45;;;;;;;31.67;14.73;;;;;;;-6.03;82.91;100880.06;5031716;28;20029;-76
2022/12/15 09:21:11;;;;;;;31.10;14.93;;;;;;;-5.98;83.06;100883.59;5017147;28;20028;-77
2022/12/15 09:23:38;;;;;;;31.60;14.50;;;;;;;-5.94;83.39;100885.47;5025177;28;20029;-76
2022/12/15 09:26:08;;;;;;;31.80;15.97;;;;;;;-5.89;83.25;100882.28;5023858;28;20025;-77
2022/12/15 09:28:33;;;;;;;29.50;14.30;;;;;;;-5.83;83.93;100885.06;5018033;28;20026;-76
2022/12/15 09:31:13;;;;;;;32.53;14.87;;;;;;;-5.80;83.20;100890.25;5023380;28;20053;-76
2022/12/15 09:33:40;;;;;;;29.20;14.93;;;;;;;-5.77;83.31;100895.44;5024768;28;20079;-76
2022/12/15 09:36:06;;;;;;;31.53;14.80;;;;;;;-5.73;83.45;100901.53;5019476;28;20092;-77
2022/12/15 09:38:37;;;;;;;29.37;14.00;;;;;;;-5.68;83.05;100908.50;5027055;28;20100;-77
2022/12/15 09:41:14;;;;;;;32.83;15.73;;;;;;;-5.63;83.87;100912.09;5029033;28;20376;-77
2022/12/15 09:43:50;;;;;;;29.50;14.60;;;;;;;-5.58;83.63;100914.84;5024531;28;20032;-77
2022/12/15 09:46:54;;;;;;;30.30;15.90;;;;;;;-5.53;83.47;100912.47;5024614;28;20507;-77
2022/12/15 09:49:38;;;;;;;36.97;17.00;;;;;;;-5.48;83.82;100908.47;5022252;28;20026;-76
2022/12/15 09:52:24;;;;;;;35.73;16.90;;;;;;;-5.43;83.51;100903.59;5020855;28;20021;-77
2022/12/15 09:54:49;;;;;;;36.23;16.27;;;;;;;-5.38;83.79;100917.31;5016897;28;20033;-77
2022/12/15 09:57:19;;;;;;;34.10;16.93;;;;;;;-5.32;83.44;100914.16;5033050;28;20388;-77
2022/12/15 10:00:06;;;;;;;32.73;16.07;;;;;;;-5.26;83.67;100922.88;5023186;28;20021;-76
2022/12/15 10:03:09;;;;;;;34.57;16.37;;;;;;;-5.22;83.39;100924.75;5028965;28;20112;-77
2022/12/15 10:06:05;;;;;;;31.83;14.50;;;;;;;-5.15;83.31;100930.91;5018095;28;20057;-77
2022/12/15 10:08:34;;;;;;;33.80;16.70;;;;;;;-5.11;83.88;100925.13;5011807;28;20374;-77
2022/12/15 10:11:04;;;;;;;31.67;15.40;;;;;;;-5.07;83.81;100928.69;5030860;28;20231;-76
2022/12/15 10:13:56;;;;;;;30.97;15.53;;;;;;;-5.03;83.86;100931.41;5022683;28;20393;-76
2022/12/15 10:16:35;;;;;;;33.90;16.50;;;;;;;-4.98;83.87;100915.50;5025807;28;20472;-77
2022/12/15 10:19:15;;;;;;;33.53;15.83;;;;;;;-4.93;83.67;100919.06;5031080;28;20030;-77
2022/12/15 10:21:41;;;;;;;32.37;14.57;;;;;;;-4.89;83.90;100910.75;5033441;28;20029;-77
2022/12/15 10:24:18;;;;;;;32.90;15.87;;;;;;;-4.85;83.70;100910.06;5026884;28;20026;-76
2022/12/15 10:26:52;;;;;;;31.33;15.07;;;;;;;-4.80;83.99;100913.66;5036873;28;20130;-77
2022/12/15 10:29:30;;;;;;;32.77;15.50;;;;;;;-4.74;84.29;100918.94;5025614;28;20077;-76
2022/12/15 10:32:07;;;;;;;33.20;15.13;;;;;;;-4.68;83.97;100912.38;5029504;28;20037;-77
2022/12/15 10:34:37;;;;;;;26.83;13.90;;;;;;;-4.64;84.01;100920.16;5034436;28;20032;-76
2022/12/15 10:37:03;;;;;;;28.37;15.00;;;;;;;-4.59;84.51;100920.34;5035042;28;20036;-77
2022/12/15 10:39:43;;;;;;;30.30;14.30;;;;;;;-4.54;84.53;100926.44;5035432;28;20025;-76
2022/12/15 10:42:23;;;;;;;29.50;14.63;;;;;;;-4.49;84.48;100919.88;5029411;28;20037;-76
2022/12/15 10:44:51;;;;;;;29.20;14.13;;;;;;;-4.42;84.28;100926.06;5034114;28;20306;-77
2022/12/15 10:47:18;;;;;;;32.63;16.17;;;;;;;-4.36;84.41;100925.41;5031671;28;20032;-76
2022/12/15 10:49:44;;;;;;;27.60;14.10;;;;;;;-4.32;83.90;100927.25;5027192;28;20451;-77
2022/12/15 10:52:24;;;;;;;33.80;16.60;;;;;;;-4.27;84.22;100925.75;5030108;28;20096;-76
2022/12/15 10:54:51;;;;;;;32.57;15.47;;;;;;;-4.21;83.95;100915.78;5038023;28;20079;-77
2022/12/15 10:57:30;;;;;;;32.27;15.60;;;;;;;-4.18;84.36;100920.09;5032211;28;20022;-78
2022/12/15 11:00:26;;;;;;;28.40;15.70;;;;;;;-4.13;84.43;100927.13;5033626;28;20504;-78
2022/12/15 11:02:51;;;;;;;36.27;18.07;;;;;;;-4.07;84.27;100926.47;5031020;28;20105;-76
2022/12/15 11:05:17;;;;;;;32.20;15.30;;;;;;;-4.00;83.74;100930.94;5031292;28;20113;-76
2022/12/15 11:08:16;;;;;;;33.67;16.13;;;;;;;-3.93;83.89;100926.06;5029577;28;20025;-76
2022/12/15 11:13:41;;;;;;;33.17;16.50;;;;;;;-3.84;83.82;100919.63;5021716;28;20045;-76
2022/12/15 11:16:15;;;;;;;31.47;15.73;;;;;;;-3.77;83.80;100923.25;5027251;28;20021;-75
2022/12/15 11:18:47;;;;;;;30.77;15.57;;;;;;;-3.69;83.96;100928.59;5032397;28;20171;-75
2022/12/15 11:21:15;;;;;;;33.07;16.80;;;;;;;-3.63;83.35;100918.63;5030389;28;20033;-75
2022/12/15 11:23:49;;;;;;;31.83;16.40;;;;;;;-3.58;83.60;100918.78;5031375;28;20026;-75
2022/12/15 11:26:37;;;;;;;29.80;14.43;;;;;;;-3.52;83.07;100908.81;5029755;28;20033;-74
2022/12/15 11:29:20;;;;;;;29.47;14.67;;;;;;;-3.45;83.32;100914.97;5028084;28;20060;-75
2022/12/15 11:31:47;;;;;;;31.63;16.17;;;;;;;-3.42;82.90;100910.00;5031221;28;20472;-75
2022/12/15 11:34:16;;;;;;;29.20;14.93;;;;;;;-3.34;83.04;100911.09;5027524;28;20050;-75
2022/12/15 11:36:56;;;;;;;31.53;15.80;;;;;;;-3.29;83.15;100912.09;5027221;28;20033;-75
2022/12/15 11:39:52;;;;;;;34.03;16.40;;;;;;;-3.21;83.78;100914.91;5020786;28;20464;-75
2022/12/15 11:42:25;;;;;;;31.77;16.37;;;;;;;-3.16;82.72;100913.34;5025711;28;20469;-74
2022/12/15 11:45:03;;;;;;;30.00;15.80;;;;;;;-3.10;82.84;100911.00;5031842;28;20017;-74
2022/12/15 11:47:42;;;;;;;35.43;18.53;;;;;;;-3.03;82.69;100908.66;5031320;28;20040;-74
2022/12/15 11:50:41;;;;;;;34.17;17.13;;;;;;;-2.96;82.53;100908.91;5028518;28;20025;-77
2022/12/15 11:53:14;;;;;;;37.80;19.60;;;;;;;-2.87;82.97;100909.97;5027903;28;20052;-75
2022/12/15 11:56:12;;;;;;;40.03;18.83;;;;;;;-2.80;81.91;100910.19;5024350;28;20029;-74
2022/12/15 11:58:58;;;;;;;37.17;19.67;;;;;;;-2.73;82.76;100895.97;5024925;28;20473;-75
2022/12/15 12:01:59;;;;;;;40.57;20.30;;;;;;;-2.64;82.36;100897.91;5030862;28;20068;-76
2022/12/15 12:04:36;;;;;;;34.88;18.42;;;;;;;-2.58;82.46;100894.72;5023003;28;20580;-76
2022/12/15 12:07:22;;;;;;;38.80;19.90;;;;;;;-2.52;82.29;100888.09;5030406;28;20029;-76
2022/12/15 12:10:21;;;;;;;35.57;18.57;;;;;;;-2.40;82.66;100895.25;5029223;28;20120;-76
2022/12/15 12:13:08;;;;;;;34.50;18.20;;;;;;;-2.30;81.77;100887.03;5014125;28;20440;-77
2022/12/15 12:15:52;;;;;;;38.03;19.13;;;;;;;-2.15;82.38;100885.72;5021411;28;20409;-76
2022/12/15 12:18:26;;;;;;;34.87;18.07;;;;;;;-2.04;82.24;100891.94;5028196;28;20030;-77
2022/12/15 12:21:04;;;;;;;33.57;18.00;;;;;;;-1.95;81.16;100877.72;5019525;28;20039;-77
2022/12/15 12:23:44;;;;;;;34.47;19.00;;;;;;;-1.90;81.36;100871.06;5029261;28;20476;-77
2022/12/15 12:26:21;;;;;;;31.53;16.63;;;;;;;-1.84;81.48;100866.13;5031484;28;20025;-77
2022/12/15 12:28:58;;;;;;;32.57;17.37;;;;;;;-1.79;80.61;100866.25;5025073;28;20029;-76
2022/12/15 12:31:37;;;;;;;32.20;18.20;;;;;;;-1.75;80.81;100865.47;5023186;28;20082;-77
2022/12/15 12:34:14;;;;;;;30.53;16.03;;;;;;;-1.68;80.74;100864.81;5024840;28;20037;-75
2022/12/15 12:36:43;;;;;;;33.87;17.23;;;;;;;-1.63;80.23;100858.16;5024923;28;20370;-75
2022/12/15 12:39:18;;;;;;;29.60;16.07;;;;;;;-1.57;80.32;100867.66;5023547;28;20665;-76
2022/12/15 12:41:54;;;;;;;28.77;16.07;;;;;;;-1.50;80.07;100868.66;5021471;28;20495;-76
2022/12/15 12:44:36;;;;;;;31.27;16.23;;;;;;;-1.39;80.15;100872.31;5023657;28;20040;-77
2022/12/15 12:47:14;;;;;;;28.40;14.53;;;;;;;-1.29;80.58;100873.41;5023793;28;20091;-77
2022/12/15 12:49:49;;;;;;;28.67;15.80;;;;;;;-1.20;79.79;100871.06;5023268;28;20049;-77
2022/12/15 12:52:28;;;;;;;29.60;14.90;;;;;;;-1.12;80.40;100871.25;5024144;28;20037;-77
2022/12/15 12:54:59;;;;;;;27.33;15.20;;;;;;;-1.01;79.53;100862.13;5023859;28;20041;-77
2022/12/15 12:57:32;;;;;;;30.52;15.95;;;;;;;-0.91;79.09;100865.75;5024567;28;20527;-77
2022/12/15 13:00:02;;;;;;;27.90;15.57;;;;;;;-0.82;78.81;100860.81;5024447;28;20037;-77
2022/12/15 13:02:33;;;;;;;27.57;15.23;;;;;;;-0.73;79.44;100859.31;5023565;28;20041;-77
2022/12/15 13:05:30;;;;;;;24.70;14.25;;;;;;;-0.65;79.06;100855.19;5022590;28;20377;-78
2022/12/15 13:08:17;;;;;;;26.47;14.63;;;;;;;-0.57;79.08;100848.56;5022525;28;20033;-77
2022/12/15 13:10:47;;;;;;;25.97;14.43;;;;;;;-0.54;78.04;100838.41;5023403;28;20047;-77
2022/12/15 13:13:27;;;;;;;30.83;15.80;;;;;;;-0.50;78.46;100841.88;5022892;28;20041;-77
2022/12/15 13:16:09;;;;;;;25.27;14.33;;;;;;;-0.48;78.30;100828.28;5023080;28;20053;-77
2022/12/15 13:18:58;;;;;;;;;;;;;;;-0.43;78.97;100822.41;5022506;28;20073;-77
2022/12/15 13:21:44;;;;;;;24.63;13.23;;;;;;;-0.40;78.10;100827.59;5024870;28;19940;-77
2022/12/15 13:24:34;;;;;;;24.33;13.53;;;;;;;-0.41;78.40;100808.81;5023007;28;20048;-77
2022/12/15 13:27:18;;;;;;;22.97;12.70;;;;;;;-0.40;77.73;100809.69;5024304;28;20025;-77
2022/12/15 13:30:12;;;;;;;26.77;14.07;;;;;;;-0.47;77.82;100809.56;5022267;28;20045;-77
2022/12/15 13:32:45;;;;;;;26.27;14.60;;;;;;;-0.53;78.12;100812.03;5023338;28;20033;-77
2022/12/15 13:35:13;;;;;;;25.27;14.20;;;;;;;-0.55;78.56;100812.81;5022042;28;20041;-77
2022/12/15 13:37:53;;;;;;;27.20;14.10;;;;;;;-0.50;78.29;100808.66;5022479;28;20033;-77
2022/12/15 13:40:50;;;;;;;28.57;14.50;;;;;;;-0.35;78.77;100818.31;5022513;28;20041;-77
2022/12/15 13:43:27;;;;;;;25.53;15.27;;;;;;;-0.21;78.77;100819.44;5023002;28;20048;-77
2022/12/15 13:46:09;;;;;;;27.07;14.93;;;;;;;-0.06;78.25;100812.88;5023124;28;20041;-78
2022/12/15 13:48:42;;;;;;;26.33;14.82;;;;;;;0.07;78.04;100816.50;5022260;28;20025;-78
2022/12/15 13:51:08;;;;;;;28.60;15.40;;;;;;;0.09;77.21;100818.25;5021930;28;20034;-77